Time;durP1;ratioP1;P1;durP2;ratioP2;P2;SDS_P1;SDS_P2;PMS_P1;PMS_P2;Temp;Humidity;BMP_temperature;BMP_pressure;BME280_temperature;BME280_humidity;BME280_pressure;Samples;Min_cycle;Max_cycle;Signal;HPM_P1;HPM_P2
2022/11/23 00:01:36;;;;;;;27.00;19.00;;;7.70;99.90;;;;;;5128230;22;20067;-75
2022/11/23 00:07:42;;;;;;;29.08;18.88;;;7.30;99.90;;;;;;5093094;28;20612;-73
2022/11/23 00:10:08;;;;;;;25.30;18.98;;;7.70;99.90;;;;;;5074826;28;20115;-73
2022/11/23 00:12:33;;;;;;;24.10;18.50;;;7.40;99.90;;;;;;5074397;28;20088;-74
2022/11/23 00:14:59;;;;;;;29.35;19.25;;;7.40;99.90;;;;;;5075034;28;20040;-75
2022/11/23 00:17:25;;;;;;;31.15;20.15;;;7.40;99.90;;;;;;5058078;28;20044;-74
2022/11/23 00:19:50;;;;;;;29.67;19.88;;;7.80;99.90;;;;;;5074669;28;20046;-74
2022/11/23 00:22:16;;;;;;;26.60;19.35;;;7.50;99.90;;;;;;5074716;28;20052;-74
2022/11/23 00:24:41;;;;;;;23.73;16.63;;;7.60;99.90;;;;;;5057689;28;20040;-73
2022/11/23 00:27:07;;;;;;;28.17;18.85;;;7.80;99.90;;;;;;5057917;28;20047;-74
2022/11/23 00:29:32;;;;;;;23.65;18.75;;;7.50;99.90;;;;;;5074341;28;20043;-74
2022/11/23 00:31:58;;;;;;;27.95;20.10;;;7.80;99.90;;;;;;5074536;28;20450;-74
2022/11/23 00:34:23;;;;;;;28.25;18.80;;;7.80;99.90;;;;;;5073935;28;20119;-74
2022/11/23 00:36:50;;;;;;;25.88;18.58;;;7.70;99.90;;;;;;5057706;28;20127;-73
2022/11/23 00:39:15;;;;;;;35.03;20.20;;;7.80;99.90;;;;;;5092682;28;20044;-73
2022/11/23 00:41:41;;;;;;;27.05;19.27;;;7.90;99.90;;;;;;5074272;28;20043;-74
2022/11/23 00:44:07;;;;;;;26.88;19.55;;;7.60;99.90;;;;;;5073806;28;20047;-74
2022/11/23 00:46:32;;;;;;;27.10;18.77;;;7.70;99.90;;;;;;5074847;28;20047;-74
2022/11/23 00:48:59;;;;;;;28.30;19.77;;;7.60;99.90;;;;;;5074326;28;20062;-74
2022/11/23 00:51:31;;;;;;;23.30;17.95;;;7.80;99.90;;;;;;5057449;28;20040;-74
2022/11/23 00:53:58;;;;;;;31.58;20.95;;;7.70;99.90;;;;;;5074101;28;20405;-74
2022/11/23 00:56:23;;;;;;;27.70;19.88;;;7.60;99.90;;;;;;5074035;28;20533;-74
2022/11/23 00:58:50;;;;;;;30.85;20.63;;;7.70;99.90;;;;;;5057462;28;20086;-74
2022/11/23 01:01:18;;;;;;;27.80;20.08;;;7.70;99.90;;;;;;5057332;28;20044;-73
2022/11/23 01:03:47;;;;;;;29.55;21.15;;;7.70;99.90;;;;;;5073614;28;20040;-73
2022/11/23 01:06:18;;;;;;;31.38;19.90;;;7.60;99.90;;;;;;5073775;28;20194;-73
2022/11/23 01:08:53;;;;;;;26.17;19.70;;;7.80;99.90;;;;;;5057176;28;20036;-73
2022/11/23 01:11:20;;;;;;;29.98;19.90;;;7.90;99.90;;;;;;5057010;28;20039;-73
2022/11/23 01:13:45;;;;;;;28.73;20.20;;;7.70;99.90;;;;;;5073629;28;20032;-73
2022/11/23 01:16:29;;;;;;;26.95;19.63;;;7.60;99.90;;;;;;5073690;28;20085;-73
2022/11/23 01:18:55;;;;;;;;;;;7.90;99.90;;;;;;5074266;28;20090;-73
2022/11/23 01:21:22;;;;;;;30.48;19.10;;;7.80;99.90;;;;;;5056946;28;19916;-73
2022/11/23 01:23:47;;;;;;;24.38;18.27;;;7.80;99.90;;;;;;5073344;28;20040;-73
2022/11/23 01:26:13;;;;;;;24.08;19.02;;;7.60;99.90;;;;;;5074000;28;20048;-74
2022/11/23 01:28:39;;;;;;;27.95;19.98;;;7.80;99.90;;;;;;5073524;28;20047;-74
2022/11/23 01:31:08;;;;;;;30.92;19.25;;;7.90;99.90;;;;;;5056801;28;20044;-74
2022/11/23 01:33:35;;;;;;;35.03;20.90;;;7.70;99.90;;;;;;5056760;28;20431;-74
2022/11/23 01:36:07;;;;;;;30.95;20.70;;;7.80;99.90;;;;;;5073591;28;20047;-74
2022/11/23 01:38:32;;;;;;;28.85;20.30;;;7.70;99.90;;;;;;5073687;28;20047;-74
2022/11/23 01:40:58;;;;;;;29.00;20.40;;;7.70;99.90;;;;;;5073510;28;20040;-74
2022/11/23 01:43:23;;;;;;;25.45;19.38;;;7.80;99.90;;;;;;5073394;28;20370;-74
2022/11/23 01:45:52;;;;;;;25.60;18.85;;;7.70;99.90;;;;;;5073552;28;20047;-74
2022/11/23 01:48:25;;;;;;;33.03;21.58;;;7.70;99.90;;;;;;5073450;28;20187;-74
2022/11/23 01:50:51;;;;;;;;;;;7.90;99.90;;;;;;5073920;28;20048;-74
2022/11/23 01:53:19;;;;;;;29.75;19.58;;;7.70;99.90;;;;;;5073222;28;19923;-74
2022/11/23 01:55:47;;;;;;;34.53;21.25;;;7.80;99.90;;;;;;5073355;28;20528;-74
2022/11/23 01:58:17;;;;;;;27.67;20.73;;;7.80;99.90;;;;;;5056928;28;20040;-76
2022/11/23 02:00:43;;;;;;;30.92;21.17;;;7.70;99.90;;;;;;5057136;28;20040;-75
2022/11/23 02:03:09;;;;;;;33.05;20.05;;;7.80;99.90;;;;;;5056211;28;20119;-74
2022/11/23 02:05:41;;;;;;;25.55;18.98;;;7.90;99.90;;;;;;5073346;28;20126;-75
2022/11/23 02:08:07;;;;;;;29.25;20.13;;;7.80;99.90;;;;;;5073145;28;20040;-74
2022/11/23 02:10:33;;;;;;;33.83;20.67;;;7.80;99.90;;;;;;5073609;28;20040;-74
2022/11/23 02:13:03;;;;;;;28.65;19.42;;;7.80;99.90;;;;;;5072758;28;20034;-74
2022/11/23 02:15:29;;;;;;;26.55;20.05;;;7.80;99.90;;;;;;5058019;28;20445;-74
2022/11/23 02:17:55;;;;;;;26.63;18.73;;;7.90;99.90;;;;;;5076882;28;20162;-74
2022/11/23 02:20:20;;;;;;;25.60;18.45;;;7.70;99.90;;;;;;5076982;28;20439;-74
2022/11/23 02:23:07;;;;;;;29.30;20.85;;;7.90;99.90;;;;;;5076770;28;20044;-74
2022/11/23 02:25:44;;;;;;;25.98;18.35;;;7.80;99.90;;;;;;5077100;28;20044;-74
2022/11/23 02:28:23;;;;;;;25.88;16.95;;;8.00;99.90;;;;;;5076898;28;20501;-74
2022/11/23 02:30:51;;;;;;;26.88;17.90;;;7.90;99.90;;;;;;5060360;28;20044;-74
2022/11/23 02:33:17;;;;;;;20.95;16.05;;;7.90;99.90;;;;;;5076289;28;20135;-74
2022/11/23 02:35:49;;;;;;;28.90;17.85;;;8.10;99.90;;;;;;5076894;28;20075;-74
2022/11/23 02:38:16;;;;;;;26.08;16.10;;;7.90;99.90;;;;;;5076611;28;20050;-74
2022/11/23 02:40:42;;;;;;;26.00;17.45;;;7.90;99.90;;;;;;5076977;28;20445;-74
2022/11/23 02:43:07;;;;;;;23.30;16.88;;;8.10;99.90;;;;;;5076996;28;20067;-74
2022/11/23 02:45:44;;;;;;;22.15;16.92;;;7.90;99.90;;;;;;5059744;28;20071;-74
2022/11/23 02:48:10;;;;;;;28.55;18.17;;;8.00;99.90;;;;;;5059831;28;20044;-74
2022/11/23 02:50:35;;;;;;;21.85;16.35;;;7.90;99.90;;;;;;5076489;28;20055;-74
2022/11/23 02:53:01;;;;;;;25.23;16.50;;;8.10;99.90;;;;;;5076027;28;20130;-74
2022/11/23 02:55:27;;;;;;;25.27;17.48;;;8.20;99.90;;;;;;5076552;28;20119;-74
2022/11/23 02:57:52;;;;;;;23.92;16.33;;;7.90;99.90;;;;;;5076328;28;20798;-74
2022/11/23 03:00:18;;;;;;;22.63;16.52;;;8.10;99.90;;;;;;5076406;28;20043;-74
2022/11/23 03:02:44;;;;;;;23.35;14.68;;;8.20;99.90;;;;;;5076110;28;20123;-74
2022/11/23 03:05:09;;;;;;;20.70;14.80;;;8.20;99.90;;;;;;5059440;28;20044;-74
2022/11/23 03:07:35;;;;;;;26.00;15.77;;;8.00;99.90;;;;;;5075982;28;20413;-74
2022/11/23 03:10:01;;;;;;;20.60;15.32;;;8.20;99.90;;;;;;5076090;28;20101;-74
2022/11/23 03:12:26;;;;;;;23.48;14.02;;;8.20;99.90;;;;;;5075277;28;20034;-74
2022/11/23 03:14:52;;;;;;;19.13;14.38;;;8.00;99.90;;;;;;5076001;28;20024;-74
2022/11/23 03:17:17;;;;;;;24.30;15.27;;;8.00;99.90;;;;;;5075811;28;20495;-74
2022/11/23 03:19:43;;;;;;;18.50;12.93;;;8.00;99.90;;;;;;5075835;28;20069;-75
2022/11/23 03:22:09;;;;;;;19.27;14.63;;;8.00;99.90;;;;;;5075720;28;20040;-75
2022/11/23 03:24:35;;;;;;;21.13;13.18;;;8.10;99.90;;;;;;5059418;28;20040;-75
2022/11/23 03:27:01;;;;;;;24.77;15.35;;;8.20;99.90;;;;;;5057994;28;20184;-75
2022/11/23 03:29:26;;;;;;;21.75;13.30;;;8.20;99.90;;;;;;5058847;28;20047;-74
2022/11/23 03:31:53;;;;;;;20.85;13.20;;;8.20;99.90;;;;;;5059023;28;20043;-74
2022/11/23 03:34:18;;;;;;;19.38;12.35;;;8.00;99.90;;;;;;5058574;28;20028;-74
2022/11/23 03:36:44;;;;;;;18.00;12.93;;;8.00;99.90;;;;;;5075868;28;20040;-74
2022/11/23 03:39:10;;;;;;;14.50;10.73;;;8.00;99.90;;;;;;5075508;28;20039;-74
2022/11/23 03:41:35;;;;;;;18.52;12.73;;;8.20;99.90;;;;;;5075345;28;20109;-74
2022/11/23 03:44:01;;;;;;;16.27;11.32;;;8.20;99.90;;;;;;5075313;28;20401;-74
2022/11/23 03:46:27;;;;;;;19.33;11.85;;;8.00;99.90;;;;;;5058760;28;20040;-74
2022/11/23 03:48:52;;;;;;;21.35;12.68;;;8.20;99.90;;;;;;5058665;28;20407;-74
2022/11/23 03:51:18;;;;;;;18.88;11.95;;;8.00;99.90;;;;;;5058576;28;20651;-74
2022/11/23 03:53:44;;;;;;;21.65;12.00;;;8.10;99.90;;;;;;5075159;28;20130;-74
2022/11/23 03:56:10;;;;;;;22.50;14.85;;;8.20;99.90;;;;;;5075428;28;20521;-74
2022/11/23 03:58:35;;;;;;;21.63;14.13;;;8.10;99.90;;;;;;5075011;28;20488;-74
2022/11/23 04:01:01;;;;;;;24.77;14.90;;;8.10;99.90;;;;;;5075012;28;20039;-74
2022/11/23 04:03:26;;;;;;;23.73;14.02;;;8.20;99.90;;;;;;5074573;28;20040;-74
2022/11/23 04:05:52;;;;;;;21.95;13.95;;;8.10;99.90;;;;;;5075038;28;20069;-74
2022/11/23 04:08:18;;;;;;;27.73;13.15;;;8.00;99.90;;;;;;5074992;28;20047;-74
2022/11/23 04:10:43;;;;;;;20.23;14.30;;;8.10;99.90;;;;;;5074807;28;20178;-74
2022/11/23 04:13:09;;;;;;;18.80;12.60;;;8.10;99.90;;;;;;5074369;28;20387;-74
2022/11/23 04:15:35;;;;;;;23.63;13.25;;;8.30;99.90;;;;;;5074781;28;20189;-74
2022/11/23 04:18:00;;;;;;;21.80;13.70;;;8.00;99.90;;;;;;5058142;28;20040;-74
2022/11/23 04:20:26;;;;;;;21.23;13.90;;;8.10;99.90;;;;;;5074739;28;20048;-74
2022/11/23 04:22:52;;;;;;;22.85;14.25;;;8.20;99.90;;;;;;5074317;28;20044;-75
2022/11/23 04:25:18;;;;;;;24.77;15.65;;;8.20;99.90;;;;;;5057971;28;20394;-74
2022/11/23 04:27:44;;;;;;;23.02;14.40;;;8.10;99.90;;;;;;5074443;28;20461;-74
2022/11/23 04:30:10;;;;;;;21.58;14.10;;;8.20;99.90;;;;;;5074409;28;20040;-74
2022/11/23 04:32:35;;;;;;;25.55;16.25;;;8.10;99.90;;;;;;5074300;28;20046;-74
2022/11/23 04:35:01;;;;;;;26.40;14.85;;;8.10;99.90;;;;;;5074671;28;20036;-75
2022/11/23 04:37:27;;;;;;;25.00;16.08;;;8.20;99.90;;;;;;5074898;28;20036;-74
2022/11/23 04:39:52;;;;;;;23.88;15.50;;;8.20;99.90;;;;;;5074574;28;20036;-74
2022/11/23 04:42:18;;;;;;;26.95;14.93;;;8.00;99.90;;;;;;5074043;28;20079;-75
2022/11/23 04:44:43;;;;;;;22.88;14.80;;;8.10;99.90;;;;;;5074441;28;20177;-74
2022/11/23 04:47:10;;;;;;;25.00;15.20;;;8.20;99.90;;;;;;5074520;28;20036;-74
2022/11/23 04:49:35;;;;;;;24.23;14.77;;;8.20;99.90;;;;;;5074152;28;20126;-74
2022/11/23 04:52:02;;;;;;;22.70;13.65;;;8.30;99.90;;;;;;5057548;28;20165;-74
2022/11/23 04:54:28;;;;;;;27.15;15.23;;;8.30;99.90;;;;;;5057454;28;20067;-74
2022/11/23 04:56:53;;;;;;;27.33;15.90;;;8.10;99.90;;;;;;5074083;28;20032;-74
2022/11/23 04:59:19;;;;;;;30.90;17.77;;;8.10;99.90;;;;;;5074208;28;20040;-74
2022/11/23 05:01:44;;;;;;;26.23;15.43;;;8.10;99.90;;;;;;5057086;28;20512;-74
2022/11/23 05:04:10;;;;;;;26.25;15.80;;;8.30;99.90;;;;;;5057152;28;20042;-74
2022/11/23 05:06:35;;;;;;;25.27;15.60;;;8.10;99.90;;;;;;5057376;28;20032;-74
2022/11/23 05:09:01;;;;;;;29.42;17.08;;;8.30;99.90;;;;;;5073889;28;20090;-75
2022/11/23 05:11:27;;;;;;;26.60;16.10;;;8.10;99.90;;;;;;5057162;28;20409;-74
2022/11/23 05:13:52;;;;;;;32.58;17.25;;;8.20;99.90;;;;;;5073886;28;20036;-74
2022/11/23 05:16:18;;;;;;;26.00;16.15;;;8.20;99.90;;;;;;5092153;28;20072;-74
2022/11/23 05:18:43;;;;;;;26.55;16.25;;;8.20;99.90;;;;;;5073868;28;20127;-74
2022/11/23 05:21:09;;;;;;;25.38;16.55;;;8.30;99.90;;;;;;5073646;28;20040;-74
2022/11/23 05:23:34;;;;;;;28.98;16.75;;;8.20;99.90;;;;;;5073347;28;20076;-74
2022/11/23 05:26:00;;;;;;;23.80;16.58;;;8.20;99.90;;;;;;5057008;28;20044;-74
2022/11/23 05:28:25;;;;;;;29.27;17.48;;;8.30;99.90;;;;;;5073562;28;20044;-74
2022/11/23 05:30:51;;;;;;;35.33;19.95;;;8.30;99.90;;;;;;5073705;28;20036;-74
2022/11/23 05:33:16;;;;;;;34.63;18.92;;;8.30;99.90;;;;;;5073212;28;20036;-74
2022/11/23 05:35:42;;;;;;;31.85;18.58;;;8.20;99.90;;;;;;5057019;28;20071;-75
2022/11/23 05:38:08;;;;;;;31.85;18.98;;;8.10;99.90;;;;;;5073792;28;20513;-74
2022/11/23 05:40:34;;;;;;;33.38;18.73;;;8.10;99.90;;;;;;5056988;28;20126;-74
2022/11/23 05:42:59;;;;;;;35.20;20.80;;;8.20;99.90;;;;;;5073193;28;20040;-74
2022/11/23 05:45:25;;;;;;;38.20;20.92;;;8.20;99.90;;;;;;5056902;28;20044;-74
2022/11/23 05:47:56;;;;;;;38.92;21.00;;;8.20;99.90;;;;;;5073287;28;20492;-74
2022/11/23 05:50:23;;;;;;;32.53;18.65;;;8.10;99.90;;;;;;5074801;28;20040;-74
2022/11/23 05:52:49;;;;;;;32.13;18.75;;;8.20;99.90;;;;;;5077273;28;20400;-74
2022/11/23 05:55:15;;;;;;;29.35;17.90;;;8.40;99.90;;;;;;5077419;28;20036;-74
2022/11/23 05:57:41;;;;;;;33.08;19.13;;;8.20;99.90;;;;;;5077651;28;20123;-74
2022/11/23 06:00:09;;;;;;;30.00;17.42;;;8.30;99.90;;;;;;5077156;28;20036;-74
2022/11/23 06:02:35;;;;;;;35.22;19.48;;;8.20;99.90;;;;;;5111140;22;20466;-72
2022/11/23 06:05:01;;;;;;;34.55;20.05;;;8.40;99.90;;;;;;5115513;28;20067;-73
2022/11/23 06:07:26;;;;;;;31.83;19.25;;;8.20;99.90;;;;;;5114000;28;20070;-73
2022/11/23 06:09:52;;;;;;;26.10;17.17;;;8.30;99.90;;;;;;5115413;28;20458;-72
2022/11/23 06:12:17;;;;;;;28.23;17.05;;;8.30;99.90;;;;;;5115186;28;20505;-72
2022/11/23 06:14:43;;;;;;;29.17;17.90;;;8.40;99.90;;;;;;5115530;28;20127;-72
2022/11/23 06:17:08;;;;;;;31.88;16.95;;;8.20;99.90;;;;;;5115444;28;20121;-74
2022/11/23 06:19:34;;;;;;;30.10;17.67;;;8.30;99.90;;;;;;5115348;28;20043;-72
2022/11/23 06:21:59;;;;;;;26.35;16.70;;;8.30;99.90;;;;;;5115231;28;20070;-72
2022/11/23 06:24:25;;;;;;;28.15;17.00;;;8.30;99.90;;;;;;5113678;28;20043;-72
2022/11/23 06:26:51;;;;;;;22.52;16.05;;;8.30;99.90;;;;;;5115350;28;20377;-72
2022/11/23 06:29:18;;;;;;;27.90;15.85;;;8.10;99.90;;;;;;5115492;28;20035;-72
2022/11/23 06:31:44;;;;;;;27.48;16.52;;;8.20;99.90;;;;;;5115179;28;20047;-72
2022/11/23 06:34:09;;;;;;;28.30;16.30;;;8.10;99.90;;;;;;5113489;28;20036;-72
2022/11/23 06:36:35;;;;;;;34.33;16.58;;;8.10;99.90;;;;;;5114961;28;20058;-73
2022/11/23 06:39:00;;;;;;;27.17;14.65;;;8.30;99.90;;;;;;5114909;28;20409;-73
2022/11/23 06:41:26;;;;;;;25.58;16.15;;;8.20;99.90;;;;;;5115106;28;20043;-73
2022/11/23 06:43:51;;;;;;;22.52;14.15;;;8.10;99.90;;;;;;5114910;28;20039;-73
2022/11/23 06:46:17;;;;;;;24.45;14.60;;;8.30;99.90;;;;;;5114840;28;20040;-73
2022/11/23 06:48:44;;;;;;;26.73;15.55;;;8.20;99.90;;;;;;5114684;28;20114;-73
2022/11/23 06:51:10;;;;;;;24.95;14.25;;;8.10;99.90;;;;;;5114802;28;20054;-73
2022/11/23 06:53:35;;;;;;;24.65;14.05;;;8.20;99.90;;;;;;5114302;27;20442;-73
2022/11/23 06:56:01;;;;;;;25.00;13.75;;;8.20;99.90;;;;;;5114825;28;20070;-73
2022/11/23 06:58:27;;;;;;;19.65;13.45;;;8.20;99.90;;;;;;5114773;28;20500;-73
2022/11/23 07:00:53;;;;;;;27.02;13.27;;;8.10;99.90;;;;;;5114524;28;20119;-73
2022/11/23 07:03:20;;;;;;;26.20;13.00;;;8.00;99.90;;;;;;5113984;28;20031;-73
2022/11/23 07:05:46;;;;;;;25.65;13.95;;;8.20;99.90;;;;;;5113190;28;20054;-72
2022/11/23 07:08:12;;;;;;;22.38;12.63;;;8.00;99.90;;;;;;5114251;28;20036;-73
2022/11/23 07:10:37;;;;;;;26.95;12.25;;;8.00;99.90;;;;;;5096311;28;20034;-72
2022/11/23 07:13:04;;;;;;;24.00;13.95;;;8.00;99.90;;;;;;5112903;28;20071;-73
2022/11/23 07:15:30;;;;;;;19.52;12.98;;;8.20;99.90;;;;;;5113238;28;20040;-72
2022/11/23 07:17:55;;;;;;;20.88;12.38;;;8.10;99.90;;;;;;5114281;28;20458;-72
2022/11/23 07:20:21;;;;;;;18.40;12.52;;;8.10;99.90;;;;;;5114172;28;20043;-72
2022/11/23 07:22:47;;;;;;;26.17;11.60;;;8.20;99.90;;;;;;5113642;28;20044;-72
2022/11/23 07:25:17;;;;;;;20.92;12.00;;;8.20;99.90;;;;;;5114263;28;20031;-72
2022/11/23 07:27:43;;;;;;;20.17;11.18;;;8.00;99.90;;;;;;5112781;28;20066;-72
2022/11/23 07:30:09;;;;;;;21.98;10.48;;;8.20;99.90;;;;;;5114034;28;20512;-72
2022/11/23 07:32:34;;;;;;;18.25;10.38;;;8.10;99.90;;;;;;5113779;28;20448;-72
2022/11/23 07:35:00;;;;;;;17.67;11.18;;;8.10;99.90;;;;;;5113855;28;20114;-72
2022/11/23 07:37:26;;;;;;;21.40;10.60;;;8.20;99.90;;;;;;5113748;28;20085;-72
2022/11/23 07:39:51;;;;;;;20.05;9.73;;;8.00;99.90;;;;;;5113990;28;20085;-73
2022/11/23 07:42:18;;;;;;;24.08;10.02;;;8.10;99.90;;;;;;5112433;28;20032;-73
2022/11/23 07:44:44;;;;;;;12.88;8.05;;;8.20;99.90;;;;;;5113781;28;20075;-72
2022/11/23 07:47:10;;;;;;;15.82;8.13;;;8.00;99.90;;;;;;5113840;28;20066;-73
2022/11/23 07:49:35;;;;;;;15.65;8.43;;;8.20;99.90;;;;;;5112275;28;20084;-73
2022/11/23 07:52:01;;;;;;;16.20;7.75;;;8.20;99.90;;;;;;5095188;28;20040;-72
2022/11/23 07:54:26;;;;;;;21.27;8.57;;;8.20;99.90;;;;;;5111937;28;20043;-72
2022/11/23 07:56:52;;;;;;;17.42;8.00;;;8.20;99.90;;;;;;5112117;28;20031;-73
2022/11/23 07:59:17;;;;;;;15.52;7.55;;;8.10;99.90;;;;;;5113484;28;20517;-73
2022/11/23 08:01:43;;;;;;;18.40;7.30;;;8.10;99.90;;;;;;5112112;28;20055;-72
2022/11/23 08:04:08;;;;;;;14.80;7.43;;;8.10;99.90;;;;;;5113023;28;20048;-73
2022/11/23 08:06:34;;;;;;;17.02;7.82;;;8.30;99.90;;;;;;5113307;28;20039;-73
2022/11/23 08:08:59;;;;;;;13.93;8.25;;;8.30;99.90;;;;;;5113478;28;20081;-73
2022/11/23 08:11:25;;;;;;;17.52;8.40;;;8.10;99.90;;;;;;5112994;28;20081;-73
2022/11/23 08:13:50;;;;;;;19.75;8.75;;;8.10;99.90;;;;;;5111018;28;20397;-73
2022/11/23 08:16:16;;;;;;;24.17;9.52;;;8.20;99.90;;;;;;5101210;28;20501;-73
2022/11/23 08:18:41;;;;;;;18.13;8.23;;;8.40;99.90;;;;;;5097707;28;20032;-73
2022/11/23 08:21:07;;;;;;;10.68;6.60;;;8.40;99.90;;;;;;5101386;28;20409;-73
2022/11/23 08:23:33;;;;;;;14.50;7.40;;;8.20;99.90;;;;;;5099398;28;20036;-73
2022/11/23 08:26:01;;;;;;;14.10;7.32;;;8.40;99.90;;;;;;5092566;28;20044;-72
2022/11/23 08:28:26;;;;;;;12.75;7.85;;;8.40;99.90;;;;;;5092375;28;20132;-72
2022/11/23 08:30:52;;;;;;;16.52;6.93;;;8.30;99.90;;;;;;5092497;28;20123;-73
2022/11/23 08:33:17;;;;;;;17.77;6.65;;;8.40;99.90;;;;;;5092012;28;20059;-72
2022/11/23 08:35:43;;;;;;;13.73;7.72;;;8.30;99.90;;;;;;5100203;28;20118;-72
2022/11/23 08:38:09;;;;;;;15.45;7.85;;;8.20;99.90;;;;;;5112017;28;20059;-72
2022/11/23 08:40:36;;;;;;;18.48;7.15;;;8.50;99.90;;;;;;5112167;28;20120;-73
2022/11/23 08:43:02;;;;;;;12.70;5.95;;;8.40;99.90;;;;;;5110842;28;20126;-72
2022/11/23 08:45:28;;;;;;;18.38;7.43;;;8.50;99.90;;;;;;5112672;28;20050;-71
2022/11/23 08:47:57;;;;;;;11.80;6.07;;;8.30;99.90;;;;;;5112396;28;20040;-76
2022/11/23 08:50:23;;;;;;;16.73;7.05;;;8.30;99.90;;;;;;5112384;28;20122;-76
2022/11/23 08:52:54;;;;;;;15.82;6.15;;;8.50;99.90;;;;;;5093839;28;20092;-76
2022/11/23 08:55:20;;;;;;;14.70;7.28;;;8.60;99.90;;;;;;5112589;28;20040;-76
2022/11/23 08:57:45;;;;;;;13.82;6.47;;;8.60;99.90;;;;;;5111062;28;20120;-76
2022/11/23 09:00:11;;;;;;;15.35;6.20;;;8.60;99.90;;;;;;5111001;28;20075;-76
2022/11/23 09:02:37;;;;;;;14.35;6.97;;;8.50;99.90;;;;;;5110437;28;20110;-75
2022/11/23 09:05:04;;;;;;;18.65;6.90;;;8.50;99.90;;;;;;5110978;28;20445;-75
2022/11/23 09:07:30;;;;;;;17.52;6.43;;;8.60;99.90;;;;;;5111334;28;20036;-76
2022/11/23 09:09:56;;;;;;;17.40;6.47;;;8.70;99.90;;;;;;5112167;28;20424;-76
2022/11/23 09:12:21;;;;;;;15.85;6.95;;;8.60;99.90;;;;;;5111914;28;20042;-76
2022/11/23 09:14:47;;;;;;;14.50;6.53;;;8.50;99.90;;;;;;5111088;28;20126;-76
2022/11/23 09:17:12;;;;;;;15.35;7.05;;;8.50;99.90;;;;;;5110668;28;20546;-76
2022/11/23 09:19:38;;;;;;;17.60;7.68;;;8.70;99.90;;;;;;5111974;28;20050;-76
2022/11/23 09:22:03;;;;;;;22.58;6.80;;;8.70;99.90;;;;;;5112085;28;20035;-76
2022/11/23 09:24:29;;;;;;;18.50;7.22;;;8.60;99.90;;;;;;5110875;28;20039;-76
2022/11/23 09:26:55;;;;;;;20.50;7.03;;;8.80;99.90;;;;;;5110402;28;20126;-76
2022/11/23 09:29:20;;;;;;;15.05;7.88;;;8.90;99.90;;;;;;5110533;28;20127;-76
2022/11/23 09:31:46;;;;;;;20.17;7.40;;;8.70;99.90;;;;;;5110530;28;20096;-76
2022/11/23 09:34:15;;;;;;;20.10;7.00;;;9.00;99.90;;;;;;5110375;28;20103;-76
2022/11/23 09:36:40;;;;;;;19.70;7.40;;;8.80;99.90;;;;;;5093917;28;20087;-76
2022/11/23 09:39:07;;;;;;;16.55;8.10;;;8.90;99.90;;;;;;5110503;28;20480;-76
2022/11/23 09:42:00;;;;;;;13.60;6.30;;;9.10;99.90;;;;;;5110404;28;20065;-76
2022/11/23 09:44:54;;;;;;;20.20;7.97;;;9.00;99.90;;;;;;5110504;28;20377;-76
2022/11/23 09:48:00;;;;;;;12.48;6.28;;;9.20;99.90;;;;;;5110492;28;20044;-76
2022/11/23 09:50:45;;;;;;;13.98;6.07;;;9.00;99.90;;;;;;5110601;28;20123;-76
2022/11/23 09:53:26;;;;;;;16.13;6.15;;;9.20;99.90;;;;;;5093098;28;20075;-76
2022/11/23 09:55:55;;;;;;;11.80;6.00;;;9.00;99.90;;;;;;5110419;28;20043;-75
2022/11/23 09:58:24;;;;;;;13.85;6.13;;;9.20;99.90;;;;;;5110425;28;20050;-76
2022/11/23 10:00:56;;;;;;;11.25;5.95;;;9.20;99.90;;;;;;5110354;28;20035;-76
2022/11/23 10:03:21;;;;;;;18.95;6.00;;;9.10;99.90;;;;;;5110078;28;20040;-76
2022/11/23 10:06:04;;;;;;;10.32;6.35;;;9.00;99.90;;;;;;5110351;28;20063;-76
2022/11/23 10:08:51;;;;;;;20.88;7.18;;;9.20;99.90;;;;;;5111878;28;20048;-76
2022/11/23 10:11:28;;;;;;;16.38;6.53;;;9.10;99.90;;;;;;5111692;28;20027;-76
2022/11/23 10:14:25;;;;;;;15.38;5.90;;;9.10;99.90;;;;;;5111491;28;20035;-76
2022/11/23 10:17:21;;;;;;;16.27;5.70;;;9.20;99.90;;;;;;5110512;28;20078;-76
2022/11/23 10:20:19;;;;;;;18.85;6.13;;;9.20;99.90;;;;;;5111553;28;20039;-76
2022/11/23 10:22:58;;;;;;;15.55;5.13;;;9.10;99.90;;;;;;5071990;28;20051;-76
2022/11/23 10:25:27;;;;;;;17.63;5.70;;;9.30;99.90;;;;;;5111545;28;20118;-76
2022/11/23 10:28:00;;;;;;;15.57;5.80;;;9.30;99.90;;;;;;5110089;28;20050;-76
2022/11/23 10:30:35;;;;;;;18.60;6.20;;;9.30;99.90;;;;;;5110320;28;20452;-76
2022/11/23 10:33:29;;;;;;;20.25;5.65;;;9.20;99.90;;;;;;5109762;28;20081;-75
2022/11/23 10:35:54;;;;;;;24.80;6.38;;;9.10;99.90;;;;;;5111224;28;20079;-76
2022/11/23 10:38:24;;;;;;;18.40;6.10;;;9.30;99.90;;;;;;5115087;28;20117;-76
2022/11/23 10:41:10;;;;;;;17.15;5.38;;;9.20;99.90;;;;;;5113601;28;20036;-76
2022/11/23 10:43:51;;;;;;;17.30;5.90;;;9.20;99.90;;;;;;5113334;28;20097;-76
2022/11/23 10:46:24;;;;;;;20.52;5.65;;;9.10;99.90;;;;;;5113411;28;20043;-76
2022/11/23 10:48:50;;;;;;;;;;;9.10;99.90;;;;;;5113776;28;20040;-76
2022/11/23 10:51:23;;;;;;;13.27;5.68;;;9.10;99.90;;;;;;5113044;28;20362;-76
2022/11/23 10:53:56;;;;;;;14.50;5.50;;;9.00;99.90;;;;;;5112786;28;20036;-76
2022/11/23 10:56:22;;;;;;;14.45;5.55;;;9.20;99.90;;;;;;5096485;28;20081;-76
2022/11/23 10:58:48;;;;;;;19.38;6.95;;;9.10;99.90;;;;;;5114591;27;20558;-75
2022/11/23 11:01:24;;;;;;;13.98;5.35;;;9.10;99.90;;;;;;5096150;28;20056;-75
2022/11/23 11:03:52;;;;;;;16.85;5.45;;;9.30;99.90;;;;;;5112897;28;20130;-75
2022/11/23 11:06:22;;;;;;;11.10;3.78;;;9.30;99.90;;;;;;5113477;28;20116;-75
2022/11/23 11:08:49;;;;;;;13.43;4.78;;;9.20;99.90;;;;;;5096066;28;20039;-76
2022/11/23 11:11:27;;;;;;;12.57;4.07;;;9.30;99.90;;;;;;5113299;28;20074;-75
2022/11/23 11:14:01;;;;;;;10.95;4.05;;;9.20;99.90;;;;;;5095720;28;20085;-76
2022/11/23 11:16:31;;;;;;;15.50;4.50;;;9.20;99.90;;;;;;5113038;28;20565;-75
2022/11/23 11:18:57;;;;;;;20.75;6.07;;;9.20;99.90;;;;;;5095838;28;20386;-76
2022/11/23 11:21:32;;;;;;;18.35;6.10;;;9.00;99.90;;;;;;5114212;28;20035;-75
2022/11/23 11:24:25;;;;;;;17.10;4.63;;;9.30;99.90;;;;;;5095574;28;20075;-75
2022/11/23 11:26:58;;;;;;;15.00;5.43;;;9.20;99.90;;;;;;5095772;28;20521;-75
2022/11/23 11:29:31;;;;;;;12.32;4.03;;;9.40;99.90;;;;;;5112777;28;20089;-75
2022/11/23 11:32:05;;;;;;;11.25;4.07;;;9.20;99.90;;;;;;5112794;28;20032;-76
2022/11/23 11:34:47;;;;;;;14.90;4.45;;;9.30;99.90;;;;;;5113660;28;20473;-75
2022/11/23 11:37:34;;;;;;;12.73;3.83;;;9.30;99.90;;;;;;5095725;28;20035;-76
2022/11/23 11:40:26;;;;;;;16.67;4.30;;;9.30;99.90;;;;;;5112648;28;20036;-76
2022/11/23 11:43:12;;;;;;;14.25;4.15;;;9.10;99.90;;;;;;5095474;28;20414;-76
2022/11/23 11:45:47;;;;;;;13.85;4.40;;;9.20;99.90;;;;;;5095553;28;20111;-76
2022/11/23 11:48:19;;;;;;;16.90;3.70;;;9.50;99.90;;;;;;5111630;28;20118;-76
2022/11/23 11:51:05;;;;;;;14.07;4.10;;;9.30;99.90;;;;;;5095536;28;20031;-76
2022/11/23 11:53:40;;;;;;;16.90;4.35;;;9.40;99.90;;;;;;5095291;28;20054;-76
2022/11/23 11:56:15;;;;;;;19.90;3.92;;;9.50;99.90;;;;;;5112491;28;20039;-76
2022/11/23 11:58:53;;;;;;;12.45;3.78;;;9.50;99.90;;;;;;5112406;28;20500;-76
2022/11/23 12:01:53;;;;;;;14.48;4.07;;;9.60;99.90;;;;;;5095742;28;20401;-76
2022/11/23 12:04:40;;;;;;;14.50;4.60;;;9.70;99.90;;;;;;5062077;28;20107;-76
2022/11/23 12:07:28;;;;;;;12.38;5.13;;;9.50;99.90;;;;;;5113439;28;20044;-76
2022/11/23 12:10:02;;;;;;;11.20;4.13;;;9.60;99.90;;;;;;5112049;28;20051;-76
2022/11/23 12:12:30;;;;;;;14.38;3.85;;;9.50;99.90;;;;;;5111780;28;20452;-76
2022/11/23 12:14:56;;;;;;;19.75;4.07;;;9.70;99.90;;;;;;5111823;28;20043;-76
2022/11/23 12:17:40;;;;;;;12.00;3.50;;;9.70;99.90;;;;;;5112028;28;20042;-76
2022/11/23 12:20:06;;;;;;;20.77;5.05;;;9.80;99.90;;;;;;5111951;28;20035;-76
2022/11/23 12:23:09;;;;;;;20.70;4.60;;;9.80;99.90;;;;;;5111213;28;20038;-76
2022/11/23 12:25:49;;;;;;;20.02;4.10;;;9.80;99.90;;;;;;5094558;28;20412;-76
2022/11/23 12:28:41;;;;;;;12.95;3.38;;;9.70;99.90;;;;;;5094514;28;20047;-76
2022/11/23 12:31:38;;;;;;;13.88;3.05;;;9.70;99.90;;;;;;5111444;28;20096;-75
2022/11/23 12:34:43;;;;;;;17.42;2.97;;;9.90;99.90;;;;;;5094357;28;20104;-76
2022/11/23 12:37:15;;;;;;;12.98;3.28;;;9.90;99.90;;;;;;5111403;28;20031;-75
2022/11/23 12:40:22;;;;;;;13.80;3.30;;;9.80;99.90;;;;;;5112647;28;20057;-76
2022/11/23 12:42:53;;;;;;;16.38;3.05;;;9.90;99.90;;;;;;5049197;28;20056;-76
2022/11/23 12:45:37;;;;;;;14.10;3.05;;;9.90;99.90;;;;;;5033399;28;20041;-76
2022/11/23 12:48:35;;;;;;;12.77;2.80;;;9.90;99.90;;;;;;5090077;28;20421;-76
2022/11/23 12:51:09;;;;;;;12.77;3.75;;;9.90;99.90;;;;;;5112649;28;20036;-76
2022/11/23 12:53:57;;;;;;;15.82;3.65;;;10.00;99.90;;;;;;5111055;28;20074;-76
2022/11/23 12:56:47;;;;;;;11.38;3.25;;;10.10;99.90;;;;;;5111154;28;20039;-75